Time;durP1;ratioP1;P1;durP2;ratioP2;P2;SDS_P1;SDS_P2;PMS_P1;PMS_P2;Temp;Humidity;BMP_temperature;BMP_pressure;BME280_temperature;BME280_humidity;BME280_pressure;Samples;Min_cycle;Max_cycle;Signal;HPM_P1;HPM_P2
2023/01/13 00:01:17;;;;;;;3.65;1.30;;;;;9.80;98026.00;;;;4995045;28;20074;-63
2023/01/13 00:03:44;;;;;;;2.42;1.50;;;;;9.80;98014.00;;;;4994564;28;20049;-63
2023/01/13 00:06:13;;;;;;;3.28;1.40;;;;;9.90;98013.00;;;;4994012;28;20407;-63
2023/01/13 00:08:40;;;;;;;3.42;1.40;;;;;9.90;98008.00;;;;4994379;28;20046;-63
2023/01/13 00:11:08;;;;;;;5.95;1.63;;;;;9.90;98004.00;;;;4993138;28;20053;-62
2023/01/13 00:13:36;;;;;;;5.78;1.55;;;;;9.90;98013.00;;;;4994289;28;20476;-63
2023/01/13 00:16:05;;;;;;;1.35;1.25;;;;;9.90;98009.00;;;;4993907;28;20068;-62
2023/01/13 00:18:33;;;;;;;3.35;1.50;;;;;9.90;98002.00;;;;4994247;28;20054;-63
2023/01/13 00:21:21;;;;;;;3.30;1.35;;;;;9.90;98010.00;;;;4992857;28;20046;-63
2023/01/13 00:23:48;;;;;;;3.38;1.27;;;;;9.90;97999.00;;;;4978753;28;20050;-62
2023/01/13 00:26:21;;;;;;;3.45;1.40;;;;;9.90;97996.00;;;;4993834;28;20149;-63
2023/01/13 00:28:48;;;;;;;2.58;1.20;;;;;9.90;97990.00;;;;5008983;28;20046;-63
2023/01/13 00:31:17;;;;;;;2.08;1.40;;;;;9.90;97992.00;;;;4992513;28;20149;-63
2023/01/13 00:33:44;;;;;;;2.40;1.25;;;;;9.90;97989.00;;;;4992555;28;20112;-64
2023/01/13 00:36:13;;;;;;;3.70;1.40;;;;;9.90;97999.00;;;;4993764;28;20039;-63
2023/01/13 00:38:44;;;;;;;3.40;1.30;;;;;9.90;97991.00;;;;4994064;28;20112;-63
2023/01/13 00:41:16;;;;;;;2.75;1.33;;;;;9.90;97985.00;;;;4993819;28;20470;-64
2023/01/13 00:43:43;;;;;;;3.30;1.00;;;;;9.90;97983.00;;;;4993881;28;20129;-63
2023/01/13 00:46:13;;;;;;;2.45;1.05;;;;;10.00;97976.00;;;;4991989;28;20042;-63
2023/01/13 00:48:40;;;;;;;5.18;1.30;;;;;9.90;97973.00;;;;4994295;28;20043;-63
2023/01/13 00:51:11;;;;;;;3.10;1.27;;;;;9.90;97966.00;;;;4994724;28;20050;-63
2023/01/13 00:53:42;;;;;;;3.10;1.02;;;;;9.90;97970.00;;;;4993835;28;20074;-62
2023/01/13 00:56:19;;;;;;;3.70;1.20;;;;;9.90;97955.00;;;;4992993;28;20058;-62
2023/01/13 00:59:04;;;;;;;1.42;1.23;;;;;9.80;97960.00;;;;4993216;28;20050;-63
2023/01/13 01:01:31;;;;;;;1.45;0.95;;;;;9.80;97953.00;;;;4993234;28;20046;-63
2023/01/13 01:03:58;;;;;;;2.30;0.90;;;;;9.80;97952.00;;;;4993520;28;20052;-63
2023/01/13 01:06:26;;;;;;;2.40;0.93;;;;;9.80;97952.00;;;;4992862;28;20149;-63
2023/01/13 01:08:54;;;;;;;1.23;0.80;;;;;9.90;97953.00;;;;4993461;28;20060;-63
2023/01/13 01:11:23;;;;;;;1.60;1.13;;;;;9.90;97946.00;;;;4993119;28;20410;-63
2023/01/13 01:13:51;;;;;;;2.60;1.00;;;;;9.90;97955.00;;;;4992978;28;20049;-64
2023/01/13 01:16:20;;;;;;;2.22;1.05;;;;;9.90;97944.00;;;;4996257;28;20136;-64
2023/01/13 01:18:49;;;;;;;1.48;0.90;;;;;9.90;97944.00;;;;5000662;28;20050;-63
2023/01/13 01:21:17;;;;;;;2.65;1.10;;;;;9.80;97930.00;;;;4997460;28;20046;-62
2023/01/13 01:23:44;;;;;;;1.13;0.88;;;;;9.80;97938.00;;;;4992654;28;20120;-63
2023/01/13 01:26:12;;;;;;;1.58;1.02;;;;;9.80;97939.00;;;;4991295;28;20085;-63
2023/01/13 01:28:39;;;;;;;1.83;1.17;;;;;9.80;97936.00;;;;4992857;28;20050;-63
2023/01/13 01:31:08;;;;;;;3.35;1.15;;;;;9.80;97927.00;;;;4993047;28;20042;-63
2023/01/13 01:33:35;;;;;;;1.20;1.05;;;;;9.90;97933.00;;;;4992478;28;20050;-63
2023/01/13 01:36:03;;;;;;;1.90;1.05;;;;;9.90;97926.00;;;;4992352;28;20137;-63
2023/01/13 01:38:29;;;;;;;3.10;1.10;;;;;9.90;97933.00;;;;4992976;28;20053;-63
2023/01/13 01:40:57;;;;;;;2.25;0.90;;;;;9.90;97925.00;;;;4992531;28;20431;-62
2023/01/13 01:43:58;;;;;;;4.38;0.90;;;;;9.90;97919.00;;;;5007689;28;20042;-63
2023/01/13 01:46:38;;;;;;;1.75;0.95;;;;;9.90;97925.00;;;;4992011;28;20058;-64
2023/01/13 01:49:19;;;;;;;4.03;1.25;;;;;9.90;97922.00;;;;4992573;28;20042;-63
2023/01/13 01:51:56;;;;;;;2.55;1.13;;;;;9.90;97913.00;;;;4992321;28;20050;-63
2023/01/13 01:54:30;;;;;;;1.83;0.93;;;;;9.90;97909.00;;;;4990541;28;20050;-63
2023/01/13 01:56:57;;;;;;;1.63;0.98;;;;;9.90;97926.00;;;;4991356;28;20038;-66
2023/01/13 01:59:30;;;;;;;1.65;1.05;;;;;9.90;97917.00;;;;4992404;28;20061;-63
2023/01/13 02:01:57;;;;;;;1.00;0.90;;;;;9.90;97913.00;;;;4990997;28;20054;-63
2023/01/13 02:04:29;;;;;;;3.08;1.08;;;;;9.90;97915.00;;;;4991734;28;20046;-62
2023/01/13 02:06:56;;;;;;;3.63;0.90;;;;;9.90;97921.00;;;;4992213;28;20046;-63
2023/01/13 02:09:24;;;;;;;3.13;1.27;;;;;9.90;97906.00;;;;4992233;28;20046;-63
2023/01/13 02:14:38;;;;;;;2.38;0.93;;;;;9.90;97919.00;;;;4991641;28;20198;-63
2023/01/13 02:17:19;;;;;;;2.45;0.90;;;;;9.90;97909.00;;;;4991037;28;20046;-63
2023/01/13 02:20:12;;;;;;;1.70;0.70;;;;;9.90;97892.00;;;;4992156;28;20488;-63
2023/01/13 02:24:52;;;;;;;1.58;1.23;;;;;9.90;97903.00;;;;4991568;28;20057;-63
2023/01/13 02:26:28;;;;;;;0.88;0.80;;;;;9.90;97895.00;;;;4991343;28;20052;-64
2023/01/13 02:32:19;;;;;;;0.80;0.80;;;;;9.90;97884.00;;;;4990972;28;20057;-64
2023/01/13 02:35:02;;;;;;;2.40;0.80;;;;;9.80;97878.00;;;;4991429;28;20488;-63
2023/01/13 02:37:33;;;;;;;1.77;0.73;;;;;9.80;97878.00;;;;4990414;28;20483;-62
2023/01/13 02:40:07;;;;;;;0.70;0.70;;;;;9.90;97868.00;;;;4991935;28;20053;-63
2023/01/13 02:45:23;;;;;;;3.47;1.08;;;;;9.90;97888.00;;;;4993969;28;20481;-62
2023/01/13 02:47:54;;;;;;;0.82;0.65;;;;;9.80;97868.00;;;;4994741;28;20074;-64
2023/01/13 02:50:27;;;;;;;0.82;0.68;;;;;9.80;97868.00;;;;4996043;28;20046;-63
2023/01/13 02:52:56;;;;;;;1.65;0.73;;;;;9.80;97858.00;;;;4994344;28;20583;-63
2023/01/13 02:55:33;;;;;;;1.13;0.80;;;;;9.80;97861.00;;;;4995368;28;20040;-63
2023/01/13 02:58:03;;;;;;;1.00;0.80;;;;;9.80;97856.00;;;;4995699;28;20418;-63
2023/01/13 03:00:32;;;;;;;1.05;0.60;;;;;9.80;97870.00;;;;4994437;28;20050;-62
2023/01/13 03:03:00;;;;;;;1.27;0.77;;;;;9.80;97849.00;;;;4995556;28;20042;-62
2023/01/13 03:05:28;;;;;;;0.60;0.60;;;;;9.80;97854.00;;;;4995008;28;20081;-62
2023/01/13 03:08:17;;;;;;;0.80;0.70;;;;;9.90;97856.00;;;;4995575;28;20046;-63
2023/01/13 03:10:55;;;;;;;2.78;0.60;;;;;9.90;97849.00;;;;4994289;28;20127;-62
2023/01/13 03:13:32;;;;;;;1.25;0.90;;;;;9.90;97848.00;;;;4995213;28;20050;-62
2023/01/13 03:16:14;;;;;;;0.70;0.70;;;;;9.80;97851.00;;;;4994646;28;20096;-62
2023/01/13 03:18:55;;;;;;;0.77;0.73;;;;;9.80;97858.00;;;;4995269;28;20050;-63
2023/01/13 03:21:39;;;;;;;0.88;0.88;;;;;9.80;97848.00;;;;4994960;28;20090;-62
2023/01/13 03:24:16;;;;;;;1.60;0.85;;;;;9.80;97848.00;;;;4994536;28;20046;-62
2023/01/13 03:26:56;;;;;;;1.10;1.00;;;;;9.80;97841.00;;;;4995042;28;20064;-63
2023/01/13 03:29:49;;;;;;;0.85;0.73;;;;;9.80;97839.00;;;;4995150;28;20086;-63
2023/01/13 03:32:22;;;;;;;3.08;0.95;;;;;9.70;97848.00;;;;4994975;28;20062;-63
2023/01/13 03:34:52;;;;;;;1.65;0.77;;;;;9.80;97848.00;;;;4994585;28;20085;-63
2023/01/13 03:37:25;;;;;;;0.93;0.80;;;;;9.80;97832.00;;;;4994806;28;20049;-62
2023/01/13 03:39:58;;;;;;;1.58;0.90;;;;;9.80;97831.00;;;;4994963;28;20046;-63
2023/01/13 03:42:29;;;;;;;1.40;0.85;;;;;9.70;97844.00;;;;4995007;28;20573;-62
2023/01/13 03:45:13;;;;;;;0.88;0.77;;;;;9.70;97846.00;;;;4994717;28;20039;-62
2023/01/13 03:47:51;;;;;;;1.85;1.00;;;;;9.70;97827.00;;;;4993752;28;20407;-63
2023/01/13 03:50:24;;;;;;;1.10;0.77;;;;;9.70;97844.00;;;;4995302;28;20446;-63
2023/01/13 03:52:58;;;;;;;1.02;0.82;;;;;9.70;97841.00;;;;4994607;28;20061;-64
2023/01/13 03:55:30;;;;;;;2.15;0.90;;;;;9.70;97835.00;;;;4994081;28;20034;-61
2023/01/13 03:58:02;;;;;;;1.10;0.82;;;;;9.70;97813.00;;;;4994723;28;20038;-64
2023/01/13 04:00:36;;;;;;;1.10;0.95;;;;;9.70;97831.00;;;;4994456;28;20042;-63
2023/01/13 04:03:10;;;;;;;0.85;0.85;;;;;9.80;97821.00;;;;4995004;28;20072;-63
2023/01/13 04:05:46;;;;;;;1.67;0.75;;;;;9.80;97821.00;;;;4994325;28;20042;-64
2023/01/13 04:08:27;;;;;;;0.98;0.88;;;;;9.80;97822.00;;;;4995012;28;20038;-63
2023/01/13 04:11:00;;;;;;;1.35;0.90;;;;;9.80;97819.00;;;;4995352;28;20042;-64
2023/01/13 04:13:30;;;;;;;1.17;0.70;;;;;9.80;97817.00;;;;4994927;28;20042;-63
2023/01/13 04:15:58;;;;;;;1.50;1.00;;;;;9.80;97816.00;;;;4994266;28;20218;-63
2023/01/13 04:18:29;;;;;;;1.45;0.80;;;;;9.80;97812.00;;;;4994816;28;20100;-63
2023/01/13 04:20:59;;;;;;;1.02;0.88;;;;;9.80;97817.00;;;;4994675;28;20038;-63
2023/01/13 04:23:27;;;;;;;1.40;0.75;;;;;9.70;97818.00;;;;4994474;28;20053;-64
2023/01/13 04:25:54;;;;;;;1.83;0.93;;;;;9.70;97805.00;;;;4993994;28;20042;-63
2023/01/13 04:28:21;;;;;;;2.90;1.20;;;;;9.80;97809.00;;;;4993467;28;20249;-63
2023/01/13 04:30:48;;;;;;;1.30;0.73;;;;;9.80;97804.00;;;;4994494;28;20043;-64
2023/01/13 04:33:15;;;;;;;1.00;0.90;;;;;9.80;97812.00;;;;4994517;28;20061;-64
2023/01/13 04:35:43;;;;;;;1.38;0.90;;;;;9.80;97808.00;;;;4992614;28;20108;-63
2023/01/13 04:38:20;;;;;;;0.90;0.90;;;;;9.80;97815.00;;;;4994327;28;20050;-63
2023/01/13 04:40:47;;;;;;;2.05;0.80;;;;;9.80;97813.00;;;;4994403;28;20133;-63
2023/01/13 04:43:14;;;;;;;2.83;1.30;;;;;9.80;97811.00;;;;4994231;28;20047;-63
2023/01/13 04:45:41;;;;;;;1.65;0.90;;;;;9.80;97817.00;;;;4993545;28;20054;-63
2023/01/13 04:48:08;;;;;;;2.03;0.90;;;;;9.80;97819.00;;;;4994197;28;20042;-63
2023/01/13 04:50:35;;;;;;;3.50;1.10;;;;;9.80;97819.00;;;;4993927;28;20093;-64
2023/01/13 04:53:01;;;;;;;1.35;0.88;;;;;9.70;97810.00;;;;4994213;28;20495;-64
2023/01/13 04:55:28;;;;;;;2.58;0.98;;;;;9.80;97802.00;;;;4993458;28;20186;-63
2023/01/13 04:57:54;;;;;;;1.80;0.90;;;;;9.80;97797.00;;;;4993966;28;20065;-64
2023/01/13 05:03:17;;;;;;;1.35;1.05;;;;;9.80;97794.00;;;;5045143;23;20298;-63
2023/01/13 05:05:44;;;;;;;3.00;1.00;;;;;9.80;97799.00;;;;4897491;29;20437;-63
2023/01/13 05:08:10;;;;;;;0.88;0.80;;;;;9.80;97802.00;;;;4896274;29;20516;-64
2023/01/13 05:10:37;;;;;;;1.77;0.93;;;;;9.80;97801.00;;;;4898153;29;20126;-63
2023/01/13 05:18:36;;;;;;;2.00;1.10;;;;;9.80;97789.00;;;;4898105;29;20049;-62
2023/01/13 05:21:03;;;;;;;2.67;1.60;;;;;9.80;97801.00;;;;4898037;29;20390;-62
2023/01/13 05:26:14;;;;;;;1.10;1.00;;;;;9.80;97811.00;;;;4897256;29;20041;-63
2023/01/13 05:28:41;;;;;;;1.40;0.85;;;;;9.80;97805.00;;;;4897788;29;20099;-62
2023/01/13 05:31:07;;;;;;;3.00;1.10;;;;;9.70;97814.00;;;;4897980;29;20100;-63
2023/01/13 05:33:34;;;;;;;1.52;1.20;;;;;9.70;97809.00;;;;4897856;29;20045;-63
2023/01/13 05:36:02;;;;;;;1.55;0.93;;;;;9.60;97816.00;;;;4896301;29;20553;-63
2023/01/13 05:38:29;;;;;;;4.88;1.10;;;;;9.60;97816.00;;;;4897930;29;20079;-63
2023/01/13 05:43:43;;;;;;;2.00;0.93;;;;;9.70;97814.00;;;;4897787;29;20501;-63
2023/01/13 05:46:11;;;;;;;1.60;1.00;;;;;9.70;97825.00;;;;4895790;29;20044;-63
2023/01/13 05:48:40;;;;;;;4.55;1.40;;;;;9.70;97826.00;;;;4898820;29;20049;-62
2023/01/13 05:51:09;;;;;;;2.30;1.00;;;;;9.70;97827.00;;;;4897692;29;20052;-62
2023/01/13 05:53:36;;;;;;;1.83;1.20;;;;;9.70;97845.00;;;;4897526;29;20055;-62
2023/01/13 05:56:04;;;;;;;1.88;1.20;;;;;9.60;97891.00;;;;4896976;29;20055;-62
2023/01/13 05:58:30;;;;;;;1.15;0.80;;;;;9.50;97895.00;;;;4897724;29;20048;-62
2023/01/13 06:01:05;;;;;;;1.35;0.70;;;;;9.40;97905.00;;;;4897556;29;20052;-63
2023/01/13 06:03:32;;;;;;;2.40;1.30;;;;;9.30;97901.00;;;;4897416;29;20060;-62
2023/01/13 06:06:00;;;;;;;0.90;0.70;;;;;9.20;97905.00;;;;4896937;29;20410;-62
2023/01/13 06:08:27;;;;;;;0.85;0.70;;;;;9.20;97911.00;;;;4897553;29;20076;-63
2023/01/13 06:10:54;;;;;;;1.17;0.73;;;;;9.10;97919.00;;;;4897710;29;20529;-63
2023/01/13 06:13:21;;;;;;;0.70;0.70;;;;;9.10;97919.00;;;;4897311;29;20052;-61
2023/01/13 06:15:48;;;;;;;1.48;0.60;;;;;9.10;97924.00;;;;4897247;29;20438;-63
2023/01/13 06:18:14;;;;;;;0.80;0.80;;;;;9.10;97917.00;;;;4897942;29;20521;-64
2023/01/13 06:20:41;;;;;;;1.20;1.10;;;;;9.10;97912.00;;;;4897274;29;20513;-63
2023/01/13 06:23:10;;;;;;;1.77;0.77;;;;;9.10;97912.00;;;;4896172;29;20394;-62
2023/01/13 06:25:45;;;;;;;0.80;0.68;;;;;9.10;97918.00;;;;4896625;29;20044;-62
2023/01/13 06:28:11;;;;;;;0.90;0.90;;;;;9.10;97914.00;;;;4897146;29;20040;-63
2023/01/13 06:30:42;;;;;;;2.97;1.17;;;;;9.10;97906.00;;;;4897455;29;20386;-63
2023/01/13 06:33:13;;;;;;;1.30;0.90;;;;;9.20;97918.00;;;;4897387;29;20116;-63
2023/01/13 06:35:44;;;;;;;0.77;0.63;;;;;9.20;97915.00;;;;4896905;29;20045;-63
2023/01/13 06:38:13;;;;;;;1.08;0.60;;;;;9.30;97912.00;;;;4897110;29;20274;-63
2023/01/13 06:40:41;;;;;;;1.38;0.70;;;;;9.30;97930.00;;;;4897580;29;20486;-61
2023/01/13 06:43:14;;;;;;;0.80;0.80;;;;;9.30;97934.00;;;;4897317;29;20037;-62
2023/01/13 06:45:55;;;;;;;2.05;0.70;;;;;9.30;97937.00;;;;4896377;29;20052;-62
2023/01/13 06:48:26;;;;;;;2.63;1.02;;;;;9.30;97945.00;;;;4897159;29;20053;-62
2023/01/13 06:50:53;;;;;;;3.15;1.17;;;;;9.30;97948.00;;;;4895925;29;20151;-62
2023/01/13 06:53:20;;;;;;;2.60;0.85;;;;;9.20;97960.00;;;;4897064;29;20500;-62
2023/01/13 06:55:46;;;;;;;1.25;0.80;;;;;9.20;97958.00;;;;4896272;29;20049;-62
2023/01/13 06:58:13;;;;;;;1.85;0.93;;;;;9.20;97938.00;;;;4897010;29;20532;-62
2023/01/13 07:00:39;;;;;;;1.25;0.80;;;;;9.20;97942.00;;;;4896969;29;20130;-63
2023/01/13 07:03:14;;;;;;;2.10;1.10;;;;;9.20;97934.00;;;;4896848;29;20052;-63
2023/01/13 07:05:42;;;;;;;2.85;0.90;;;;;9.20;97939.00;;;;4896164;29;20045;-63
2023/01/13 07:08:09;;;;;;;2.17;1.02;;;;;9.30;97945.00;;;;4896989;29;20455;-62
2023/01/13 07:10:37;;;;;;;2.92;0.85;;;;;9.20;97961.00;;;;4895603;29;20060;-62
2023/01/13 07:15:59;;;;;;;2.53;1.27;;;;;9.20;97931.00;;;;4896094;29;20044;-63
2023/01/13 07:18:30;;;;;;;2.75;1.10;;;;;9.20;97938.00;;;;4896850;29;20053;-63
2023/01/13 07:20:59;;;;;;;2.35;0.65;;;;;9.20;97943.00;;;;4895698;29;20064;-63
2023/01/13 07:23:28;;;;;;;1.77;0.60;;;;;9.10;97936.00;;;;4896854;29;20069;-63
2023/01/13 07:25:56;;;;;;;2.60;1.02;;;;;9.20;97921.00;;;;4896175;29;20044;-63
2023/01/13 07:28:26;;;;;;;2.20;1.15;;;;;9.10;97906.00;;;;4896724;29;20052;-63
2023/01/13 07:30:53;;;;;;;3.50;1.55;;;;;9.10;97912.00;;;;4897027;29;20052;-64
2023/01/13 07:33:20;;;;;;;4.47;1.50;;;;;9.10;97923.00;;;;4899958;29;20052;-64
2023/01/13 07:35:55;;;;;;;1.60;1.10;;;;;9.10;97927.00;;;;4899344;29;20501;-63
2023/01/13 07:38:22;;;;;;;2.83;1.00;;;;;9.10;97953.00;;;;4900014;29;20052;-63
2023/01/13 07:40:48;;;;;;;1.80;0.70;;;;;9.00;97964.00;;;;4899861;29;20060;-64
2023/01/13 07:43:33;;;;;;;3.20;1.40;;;;;9.00;97973.00;;;;4900039;29;20059;-63
2023/01/13 07:46:03;;;;;;;4.25;1.15;;;;;9.00;97972.00;;;;4899571;29;20061;-63
2023/01/13 07:48:31;;;;;;;3.92;1.23;;;;;9.00;97973.00;;;;4900131;29;20421;-64
2023/01/13 07:51:06;;;;;;;2.10;0.90;;;;;9.00;97977.00;;;;4899605;29;20122;-63
2023/01/13 07:53:33;;;;;;;3.30;1.95;;;;;9.00;97975.00;;;;4898427;29;20051;-64
2023/01/13 07:56:00;;;;;;;2.30;0.90;;;;;9.00;97976.00;;;;4897830;29;20087;-64
2023/01/13 07:58:27;;;;;;;3.40;1.15;;;;;9.10;97972.00;;;;4898397;29;20461;-64
2023/01/13 08:00:55;;;;;;;3.35;1.15;;;;;9.10;97971.00;;;;4899623;29;20056;-64
2023/01/13 08:03:22;;;;;;;4.97;1.42;;;;;9.10;97978.00;;;;4898168;29;20131;-63
2023/01/13 08:05:49;;;;;;;4.43;1.45;;;;;9.10;97992.00;;;;4897840;29;20051;-64
2023/01/13 08:08:16;;;;;;;1.73;1.20;;;;;9.10;97989.00;;;;4899661;29;20055;-64
2023/01/13 08:10:43;;;;;;;4.70;1.55;;;;;9.10;97989.00;;;;4899586;29;20056;-64
2023/01/13 08:13:21;;;;;;;6.60;2.28;;;;;9.20;97994.00;;;;4899397;29;20048;-64
2023/01/13 08:15:50;;;;;;;5.35;2.15;;;;;9.20;97989.00;;;;4898751;29;20045;-64
2023/01/13 08:18:20;;;;;;;5.57;2.25;;;;;9.20;97993.00;;;;4899363;29;20044;-64
2023/01/13 08:20:48;;;;;;;4.05;1.98;;;;;9.20;97998.00;;;;4898330;29;20053;-64
2023/01/13 08:23:15;;;;;;;5.20;1.85;;;;;9.20;97998.00;;;;4899039;29;20040;-64
2023/01/13 08:25:42;;;;;;;4.63;1.30;;;;;9.20;97990.00;;;;4897195;29;20052;-64
2023/01/13 08:28:08;;;;;;;5.20;1.42;;;;;9.20;97998.00;;;;4899193;29;20076;-63
2023/01/13 08:30:35;;;;;;;4.72;1.30;;;;;9.20;98004.00;;;;4899040;29;20053;-64
2023/01/13 08:33:06;;;;;;;5.68;2.13;;;;;9.20;98008.00;;;;4898630;29;20104;-64
2023/01/13 08:35:36;;;;;;;4.45;1.60;;;;;9.20;98010.00;;;;4903742;29;20452;-64
2023/01/13 08:38:03;;;;;;;6.70;1.73;;;;;9.30;98015.00;;;;4904963;29;20063;-64
2023/01/13 08:40:30;;;;;;;3.58;1.08;;;;;9.30;98017.00;;;;4906148;29;20056;-63
2023/01/13 08:42:57;;;;;;;3.60;1.88;;;;;9.40;98027.00;;;;4905789;29;20104;-63
2023/01/13 08:45:24;;;;;;;9.68;2.15;;;;;9.40;98024.00;;;;4904598;29;20532;-63
2023/01/13 08:47:50;;;;;;;6.25;1.50;;;;;9.40;98032.00;;;;4906023;29;20048;-63
2023/01/13 08:50:17;;;;;;;5.82;1.65;;;;;9.40;98027.00;;;;4903098;29;20048;-63
2023/01/13 08:52:44;;;;;;;6.50;1.83;;;;;9.40;98030.00;;;;4901991;29;20058;-63
2023/01/13 08:55:11;;;;;;;4.75;1.88;;;;;9.40;98024.00;;;;4903898;29;20052;-63
2023/01/13 08:57:37;;;;;;;4.10;1.98;;;;;9.40;98027.00;;;;4905008;29;20055;-63
2023/01/13 09:00:06;;;;;;;7.45;1.75;;;;;9.40;98038.00;;;;4903047;29;20045;-63
2023/01/13 09:02:33;;;;;;;4.80;1.90;;;;;9.40;98030.00;;;;4902644;29;20135;-63
2023/01/13 09:05:02;;;;;;;5.65;2.00;;;;;9.40;98030.00;;;;4900748;29;20394;-63
2023/01/13 09:07:29;;;;;;;7.40;2.70;;;;;9.40;98052.00;;;;4901624;29;20044;-63
2023/01/13 09:09:56;;;;;;;8.10;2.08;;;;;9.40;98048.00;;;;4901206;29;20096;-62
2023/01/13 09:15:08;;;;;;;7.53;2.33;;;;;9.40;98046.00;;;;4898826;29;20052;-62
2023/01/13 09:17:35;;;;;;;7.43;3.15;;;;;9.50;98050.00;;;;4898313;29;20052;-62
2023/01/13 09:20:01;;;;;;;6.15;2.60;;;;;9.50;98055.00;;;;4898242;29;20055;-63
2023/01/13 09:22:28;;;;;;;6.45;2.35;;;;;9.60;98061.00;;;;4896804;29;20082;-63
2023/01/13 09:24:55;;;;;;;11.25;3.10;;;;;9.60;98082.00;;;;4897659;29;20067;-63
2023/01/13 09:27:22;;;;;;;8.15;2.03;;;;;9.60;98081.00;;;;4896749;29;20060;-63
2023/01/13 09:29:49;;;;;;;4.78;1.90;;;;;9.70;98097.00;;;;4897875;29;20055;-63
2023/01/13 09:32:15;;;;;;;8.85;2.08;;;;;9.70;98082.00;;;;4896354;29;20052;-63
2023/01/13 09:35:00;;;;;;;8.43;1.95;;;;;9.50;98090.00;;;;4897520;29;20057;-63
2023/01/13 09:37:30;;;;;;;6.80;2.25;;;;;9.50;98096.00;;;;4897911;29;20050;-63
2023/01/13 09:39:56;;;;;;;9.90;2.20;;;;;9.50;98090.00;;;;4897778;29;20049;-63
2023/01/13 09:45:41;;;;;;;7.57;2.28;;;;;9.50;98087.00;;;;4897033;29;20470;-63
2023/01/13 09:48:26;;;;;;;9.57;2.17;;;;;9.60;98085.00;;;;4897488;29;20104;-63
2023/01/13 09:51:08;;;;;;;4.28;2.22;;;;;9.60;98079.00;;;;4897371;29;20466;-63
2023/01/13 09:53:46;;;;;;;7.75;2.08;;;;;9.70;98081.00;;;;4895799;29;20542;-64
2023/01/13 09:56:12;;;;;;;6.03;1.83;;;;;9.90;98073.00;;;;4896940;29;20047;-63
2023/01/13 09:58:39;;;;;;;6.25;1.98;;;;;10.00;98076.00;;;;4896286;29;20044;-63
2023/01/13 10:01:26;;;;;;;4.25;1.70;;;;;10.20;98079.00;;;;4896160;29;20051;-63
2023/01/13 10:03:53;;;;;;;12.05;2.17;;;;;10.30;98094.00;;;;4897331;29;20569;-62
2023/01/13 10:06:33;;;;;;;7.80;2.00;;;;;10.30;98090.00;;;;4896681;29;20455;-61
2023/01/13 10:09:00;;;;;;;9.93;3.17;;;;;10.30;98101.00;;;;4896068;29;20052;-61
2023/01/13 10:14:40;;;;;;;9.40;3.83;;;;;10.30;98105.00;;;;4896889;29;20128;-61
2023/01/13 10:17:38;;;;;;;8.95;2.80;;;;;10.20;98096.00;;;;4897267;29;20068;-63
2023/01/13 10:20:21;;;;;;;14.27;2.55;;;;;10.20;98111.00;;;;4895804;29;20056;-63
2023/01/13 10:22:56;;;;;;;8.70;2.40;;;;;10.10;98100.00;;;;4895744;29;20052;-64
2023/01/13 10:26:07;;;;;;;10.23;2.85;;;;;10.10;98103.00;;;;4896684;29;20060;-63
2023/01/13 10:28:33;;;;;;;10.65;2.55;;;;;10.10;98119.00;;;;4896089;29;20144;-63
2023/01/13 10:31:03;;;;;;;9.13;2.45;;;;;10.10;98112.00;;;;4896923;29;20049;-63
2023/01/13 10:33:30;;;;;;;13.57;2.45;;;;;10.10;98108.00;;;;4897174;29;20076;-63
2023/01/13 10:36:01;;;;;;;6.32;2.40;;;;;10.20;98124.00;;;;4896427;29;20044;-63
2023/01/13 10:38:33;;;;;;;7.90;2.58;;;;;10.20;98122.00;;;;4897150;29;20093;-63
2023/01/13 10:41:03;;;;;;;12.77;3.35;;;;;10.10;98119.00;;;;4896942;29;20453;-62
2023/01/13 10:43:30;;;;;;;9.00;2.33;;;;;10.00;98121.00;;;;4897147;29;20045;-63
2023/01/13 10:46:05;;;;;;;6.78;1.95;;;;;10.00;98130.00;;;;4896391;29;20048;-63
2023/01/13 10:48:38;;;;;;;9.98;2.17;;;;;9.90;98124.00;;;;4897208;29;20225;-63
2023/01/13 10:51:20;;;;;;;8.60;2.53;;;;;10.00;98126.00;;;;4896698;29;20060;-63
2023/01/13 10:53:51;;;;;;;10.20;3.00;;;;;10.20;98113.00;;;;4896993;29;20059;-64
2023/01/13 10:56:19;;;;;;;13.00;3.13;;;;;10.50;98117.00;;;;4896487;29;20124;-64
2023/01/13 10:58:46;;;;;;;11.45;2.22;;;;;10.60;98127.00;;;;4896831;29;20455;-63
2023/01/13 11:01:24;;;;;;;9.77;1.88;;;;;10.80;98114.00;;;;4897003;29;20064;-63
2023/01/13 11:03:54;;;;;;;8.88;2.58;;;;;11.00;98108.00;;;;4896684;29;20045;-62
2023/01/13 11:06:27;;;;;;;9.50;1.95;;;;;11.10;98117.00;;;;4899064;29;20108;-63
2023/01/13 11:08:57;;;;;;;5.05;1.90;;;;;11.20;98123.00;;;;4900909;29;20045;-63
2023/01/13 11:11:42;;;;;;;8.10;2.20;;;;;11.30;98121.00;;;;4899327;29;20413;-63
2023/01/13 11:14:38;;;;;;;11.30;2.55;;;;;11.30;98133.00;;;;4899965;29;20072;-62
2023/01/13 11:17:21;;;;;;;7.80;1.70;;;;;11.30;98121.00;;;;4900244;29;20052;-63
2023/01/13 11:19:57;;;;;;;18.47;3.23;;;;;11.20;98127.00;;;;4899283;29;20045;-63
2023/01/13 11:22:28;;;;;;;11.18;2.75;;;;;11.30;98139.00;;;;4900221;29;20048;-63
2023/01/13 11:25:00;;;;;;;12.23;4.10;;;;;11.30;98133.00;;;;4898489;29;20076;-62
2023/01/13 11:27:56;;;;;;;13.13;2.72;;;;;11.20;98153.00;;;;4900140;29;20041;-63
2023/01/13 11:30:31;;;;;;;9.70;2.22;;;;;11.20;98145.00;;;;4899176;29;20052;-63
2023/01/13 11:33:13;;;;;;;8.90;2.90;;;;;11.10;98150.00;;;;4898741;29;20064;-64
2023/01/13 11:35:50;;;;;;;10.55;2.15;;;;;11.10;98158.00;;;;4899341;29;20134;-64
2023/01/13 11:38:22;;;;;;;5.82;1.98;;;;;10.90;98149.00;;;;4898763;29;20079;-63
2023/01/13 11:40:49;;;;;;;9.18;2.63;;;;;10.90;98151.00;;;;4899895;29;20450;-63
2023/01/13 11:43:28;;;;;;;11.25;2.65;;;;;11.00;98171.00;;;;4900409;29;20055;-63
2023/01/13 11:45:57;;;;;;;9.20;2.97;;;;;10.80;98167.00;;;;4904903;29;20060;-63
2023/01/13 11:48:33;;;;;;;10.20;3.13;;;;;10.60;98167.00;;;;4905731;29;20040;-63
2023/01/13 11:51:23;;;;;;;7.45;2.30;;;;;10.40;98164.00;;;;4899758;29;20048;-64
2023/01/13 11:54:23;;;;;;;10.82;2.80;;;;;10.40;98161.00;;;;4899423;29;20051;-63
2023/01/13 11:56:55;;;;;;;5.70;2.08;;;;;10.40;98163.00;;;;4899319;29;20067;-63
2023/01/13 11:59:53;;;;;;;6.10;1.92;;;;;10.60;98160.00;;;;4899467;29;20406;-63
2023/01/13 12:02:35;;;;;;;7.57;2.00;;;;;10.70;98173.00;;;;4899432;29;20433;-64
2023/01/13 12:05:22;;;;;;;9.80;2.08;;;;;10.70;98177.00;;;;4899042;29;20059;-62
2023/01/13 12:08:03;;;;;;;10.20;1.70;;;;;10.50;98180.00;;;;4899277;29;20076;-62
2023/01/13 12:11:12;;;;;;;7.00;1.92;;;;;10.40;98180.00;;;;4899529;29;20092;-64
2023/01/13 12:14:11;;;;;;;9.10;2.17;;;;;10.30;98172.00;;;;4896967;29;20049;-64
2023/01/13 12:16:47;;;;;;;7.72;2.00;;;;;10.30;98184.00;;;;4899214;29;20044;-64
2023/01/13 12:19:29;;;;;;;9.02;2.10;;;;;10.30;98178.00;;;;4899410;29;20095;-63
2023/01/13 12:22:07;;;;;;;12.13;2.63;;;;;10.30;98175.00;;;;4897909;29;20052;-63
2023/01/13 12:24:46;;;;;;;12.50;2.72;;;;;10.20;98167.00;;;;4898769;29;20052;-63
2023/01/13 12:27:24;;;;;;;8.55;2.17;;;;;10.20;98156.00;;;;4898951;29;20463;-64
2023/01/13 12:29:55;;;;;;;7.25;2.10;;;;;10.20;98158.00;;;;4897897;29;20056;-63
2023/01/13 12:32:32;;;;;;;9.65;2.05;;;;;10.20;98166.00;;;;4899114;29;20070;-63
2023/01/13 12:35:04;;;;;;;10.30;2.05;;;;;10.20;98155.00;;;;4898460;29;20417;-64
2023/01/13 12:38:10;;;;;;;8.40;2.63;;;;;10.30;98156.00;;;;4898807;29;20048;-63
2023/01/13 12:41:22;;;;;;;9.82;2.67;;;;;10.30;98150.00;;;;4881132;29;20444;-63
2023/01/13 12:46:44;;;;;;;8.48;2.22;;;;;10.60;98148.00;;;;4899635;29;20254;-64
2023/01/13 12:49:33;;;;;;;7.50;2.38;;;;;10.90;98155.00;;;;4898769;29;20048;-63
2023/01/13 12:52:10;;;;;;;8.43;2.42;;;;;11.00;98175.00;;;;4899017;29;20048;-64
2023/01/13 12:54:36;;;;;;;6.88;2.20;;;;;10.80;98161.00;;;;4896883;29;20059;-62
2023/01/13 12:57:15;;;;;;;9.57;1.90;;;;;10.60;98172.00;;;;4898588;29;20055;-63
2023/01/13 13:00:04;;;;;;;8.82;2.60;;;;;10.50;98169.00;;;;4898817;29;20088;-63
2023/01/13 13:02:32;;;;;;;11.57;2.45;;;;;10.40;98175.00;;;;4898237;29;20077;-63
2023/01/13 13:05:22;;;;;;;11.15;2.35;;;;;10.20;98158.00;;;;4897736;29;20052;-62
2023/01/13 13:07:59;;;;;;;12.70;1.95;;;;;10.10;98177.00;;;;4897632;29;20498;-63
2023/01/13 13:10:32;;;;;;;6.93;1.70;;;;;9.90;98217.00;;;;4897330;29;20068;-63
2023/01/13 13:13:16;;;;;;;6.40;1.97;;;;;9.50;98215.00;;;;4898848;29;20053;-63
2023/01/13 13:15:47;;;;;;;;;;;;;9.00;98211.00;;;;4896846;29;20056;-63
2023/01/13 13:18:16;;;;;;;8.02;1.60;;;;;8.80;98206.00;;;;4898283;29;19923;-63
2023/01/13 13:21:01;;;;;;;5.72;2.10;;;;;8.70;98225.00;;;;4898241;29;20040;-63
2023/01/13 13:23:36;;;;;;;6.38;1.42;;;;;8.70;98190.00;;;;4898074;29;20091;-62
2023/01/13 13:26:16;;;;;;;7.47;2.38;;;;;8.70;98191.00;;;;4897679;29;20100;-63
2023/01/13 13:28:56;;;;;;;4.13;1.90;;;;;8.70;98234.00;;;;4896451;29;20458;-63